Time;durP1;ratioP1;P1;durP2;ratioP2;P2;SDS_P1;SDS_P2;PMS_P1;PMS_P2;Temp;Humidity;BMP_temperature;BMP_pressure;BME280_temperature;BME280_humidity;BME280_pressure;Samples;Min_cycle;Max_cycle;Signal;HPM_P1;HPM_P2
2023/09/16 00:01:12;;;;;;;6.40;1.90;;;;;;;15.47;50.63;101195.66;5009606;28;20204;-61
2023/09/16 00:03:40;;;;;;;1.77;1.40;;;;;;;15.42;50.83;101193.09;5005382;28;20576;-60
2023/09/16 00:06:12;;;;;;;3.53;1.63;;;;;;;15.38;50.95;101194.03;5010142;28;20290;-61
2023/09/16 00:08:42;;;;;;;4.93;1.50;;;;;;;15.32;51.42;101199.31;5010245;28;20294;-61
2023/09/16 00:11:10;;;;;;;2.77;2.10;;;;;;;15.23;51.51;101194.22;5010744;28;20741;-61
2023/09/16 00:13:41;;;;;;;2.87;1.37;;;;;;;15.16;51.76;101195.19;5009965;28;20234;-60
2023/09/16 00:16:12;;;;;;;5.03;1.63;;;;;;;15.10;52.22;101200.47;5005183;28;20227;-66
2023/09/16 00:18:41;;;;;;;3.73;1.40;;;;;;;15.00;52.26;101193.66;5007656;28;20211;-60
2023/09/16 00:21:10;;;;;;;2.33;1.43;;;;;;;14.98;52.75;101193.66;5010216;28;20245;-62
2023/09/16 00:23:38;;;;;;;2.80;1.60;;;;;;;14.91;52.64;101185.09;5000955;28;20203;-61
2023/09/16 00:26:06;;;;;;;3.00;1.93;;;;;;;14.89;53.36;101181.66;5008124;28;20740;-61
2023/09/16 00:28:35;;;;;;;2.33;1.70;;;;;;;14.88;53.35;101190.31;5008912;28;20203;-61
2023/09/16 00:31:06;;;;;;;1.87;1.50;;;;;;;14.87;53.23;101192.91;5006593;28;20199;-62
2023/09/16 00:33:34;;;;;;;3.37;1.60;;;;;;;14.84;53.64;101195.53;5006243;28;20211;-62
2023/09/16 00:36:03;;;;;;;6.60;2.00;;;;;;;14.79;53.29;101192.16;5008454;28;20222;-66
2023/09/16 00:38:32;;;;;;;5.33;1.80;;;;;;;14.77;53.82;101197.34;5008380;28;20235;-62
2023/09/16 00:41:00;;;;;;;4.87;1.60;;;;;;;14.75;54.13;101188.72;5010203;28;20199;-64
2023/09/16 00:43:28;;;;;;;4.07;2.03;;;;;;;14.75;53.98;101188.72;5009835;28;20573;-64
2023/09/16 00:45:56;;;;;;;3.83;2.00;;;;;;;14.70;53.99;101182.72;5004907;28;20208;-63
2023/09/16 00:48:24;;;;;;;3.73;2.10;;;;;;;14.69;53.74;101183.59;5009085;28;20294;-61
2023/09/16 00:50:53;;;;;;;2.57;1.73;;;;;;;14.67;53.97;101188.81;5012042;28;20305;-62
2023/09/16 00:53:23;;;;;;;4.80;2.20;;;;;;;14.63;54.15;101184.53;5006103;28;20576;-60
2023/09/16 00:55:52;;;;;;;5.00;1.80;;;;;;;14.65;54.62;101192.28;5010421;28;20199;-59
2023/09/16 00:58:21;;;;;;;5.33;2.00;;;;;;;14.65;54.60;101193.13;5009425;28;20207;-58
2023/09/16 01:00:49;;;;;;;4.40;2.13;;;;;;;14.64;54.40;101187.97;5012476;28;20215;-61
2023/09/16 01:03:19;;;;;;;4.27;2.00;;;;;;;14.63;54.40;101191.44;5012555;28;20668;-60
2023/09/16 01:05:48;;;;;;;2.80;1.80;;;;;;;14.61;54.79;101185.41;5012055;28;20215;-60
2023/09/16 01:08:18;;;;;;;10.33;1.93;;;;;;;14.58;54.48;101188.03;5013508;28;20290;-61
2023/09/16 01:10:47;;;;;;;4.50;2.20;;;;;;;14.57;55.04;101186.31;5005605;28;20605;-62
2023/09/16 01:13:15;;;;;;;3.60;1.90;;;;;;;14.56;54.93;101188.03;5011311;28;20211;-61
2023/09/16 01:15:49;;;;;;;5.03;1.97;;;;;;;14.54;54.76;101183.75;5006853;28;20659;-62
2023/09/16 01:18:24;;;;;;;3.43;1.80;;;;;;;14.52;54.92;101180.31;5010208;28;20254;-60
2023/09/16 01:20:55;;;;;;;2.40;1.90;;;;;;;14.44;54.94;101170.84;5011832;28;20233;-62
2023/09/16 01:23:23;;;;;;;4.70;2.13;;;;;;;14.48;54.82;101185.50;5014270;28;20670;-60
2023/09/16 01:25:52;;;;;;;16.17;2.47;;;;;;;14.46;55.15;101187.22;5004747;28;20654;-61
2023/09/16 01:28:22;;;;;;;4.23;2.27;;;;;;;14.43;55.55;101187.28;5010661;28;20654;-63
2023/09/16 01:30:51;;;;;;;2.23;2.00;;;;;;;14.36;55.18;101185.63;5013883;28;20242;-63
2023/09/16 01:33:23;;;;;;;5.30;1.77;;;;;;;14.30;55.65;101185.66;5010368;28;20203;-60
2023/09/16 01:35:55;;;;;;;4.87;1.87;;;;;;;14.29;55.93;101183.09;5011136;28;20215;-61
2023/09/16 01:38:25;;;;;;;2.90;2.13;;;;;;;14.26;56.18;101183.97;5010375;28;20207;-62
2023/09/16 01:40:56;;;;;;;4.33;1.80;;;;;;;14.22;56.15;101187.47;5012118;28;20713;-62
2023/09/16 01:43:25;;;;;;;2.60;1.93;;;;;;;14.19;56.67;101182.31;5008970;28;20199;-64
2023/09/16 01:45:53;;;;;;;3.27;2.20;;;;;;;14.14;56.92;101184.06;5009845;28;20208;-61
2023/09/16 01:48:21;;;;;;;2.63;1.93;;;;;;;14.11;56.62;101184.09;5003484;28;20204;-66
2023/09/16 01:51:03;;;;;;;5.57;2.33;;;;;;;14.04;57.54;101166.88;5011407;28;20199;-62
2023/09/16 01:53:31;;;;;;;4.23;2.23;;;;;;;14.02;57.55;101175.50;5010574;28;20206;-63
2023/09/16 01:56:01;;;;;;;4.00;2.17;;;;;;;14.00;57.43;101182.44;5008908;28;20713;-61
2023/09/16 01:58:29;;;;;;;4.97;2.17;;;;;;;13.99;58.42;101174.66;5011953;28;20211;-62
2023/09/16 02:00:57;;;;;;;3.53;1.83;;;;;;;13.95;58.28;101184.19;5012639;28;20239;-62
2023/09/16 02:03:25;;;;;;;3.90;2.60;;;;;;;13.93;58.51;101173.00;5010074;28;20290;-62
2023/09/16 02:05:53;;;;;;;7.07;2.37;;;;;;;13.91;58.60;101177.31;5011839;28;20219;-62
2023/09/16 02:08:21;;;;;;;4.43;2.37;;;;;;;13.90;58.63;101182.53;5011343;28;20757;-62
2023/09/16 02:10:48;;;;;;;3.13;2.03;;;;;;;13.89;59.04;101184.25;5011529;28;20214;-63
2023/09/16 02:13:18;;;;;;;4.53;2.47;;;;;;;13.88;58.92;101182.53;5010793;28;20207;-61
2023/09/16 02:15:46;;;;;;;4.30;2.20;;;;;;;13.86;59.54;101184.28;5012750;28;20209;-61
2023/09/16 02:18:14;;;;;;;4.30;2.30;;;;;;;13.83;59.36;101183.44;5011522;28;20293;-61
2023/09/16 02:20:42;;;;;;;2.13;1.77;;;;;;;13.78;59.19;101186.06;5007713;28;20215;-62
2023/09/16 02:23:10;;;;;;;3.77;1.97;;;;;;;13.75;59.77;101180.88;5004065;28;20717;-61
2023/09/16 02:25:38;;;;;;;3.30;2.00;;;;;;;13.72;60.15;101171.41;5012599;28;20310;-62
2023/09/16 02:28:06;;;;;;;3.27;2.10;;;;;;;13.71;60.33;101184.38;5005442;28;20661;-63
2023/09/16 02:30:36;;;;;;;4.07;2.30;;;;;;;13.69;60.54;101186.09;5010553;28;20203;-61
2023/09/16 02:33:04;;;;;;;3.10;1.90;;;;;;;13.68;60.68;101180.06;5007445;28;20207;-61
2023/09/16 02:35:33;;;;;;;8.13;2.33;;;;;;;13.71;60.89;101179.19;5009518;28;20573;-62
2023/09/16 02:38:02;;;;;;;4.17;2.03;;;;;;;13.67;60.42;101174.91;5011232;28;20208;-62
2023/09/16 02:40:30;;;;;;;4.03;2.27;;;;;;;13.66;60.89;101186.13;5009882;28;20222;-63
2023/09/16 02:42:58;;;;;;;7.23;2.17;;;;;;;13.67;60.85;101177.50;5008365;28;20210;-61
2023/09/16 02:45:26;;;;;;;8.20;2.43;;;;;;;13.66;61.07;101188.69;5008142;28;20658;-60
2023/09/16 02:47:55;;;;;;;5.73;2.30;;;;;;;13.67;61.41;101185.25;5007003;28;20231;-61
2023/09/16 02:50:23;;;;;;;5.73;1.83;;;;;;;13.69;60.96;101183.50;5011498;28;20658;-62
2023/09/16 02:52:51;;;;;;;2.60;1.83;;;;;;;13.73;61.25;101185.22;5009526;28;21110;-64
2023/09/16 02:55:21;;;;;;;5.70;3.07;;;;;;;13.73;61.45;101183.50;5010538;28;20214;-63
2023/09/16 02:57:49;;;;;;;4.70;2.20;;;;;;;13.73;61.31;101185.22;5009277;28;20200;-62
2023/09/16 03:00:17;;;;;;;5.07;2.50;;;;;;;13.73;61.58;101183.50;5010223;28;20223;-60
2023/09/16 03:02:48;;;;;;;5.93;2.03;;;;;;;13.77;61.59;101184.31;5007908;28;20298;-59
2023/09/16 03:05:18;;;;;;;4.07;2.43;;;;;;;13.81;61.15;101179.97;5009031;28;20303;-61
2023/09/16 03:07:46;;;;;;;4.70;2.10;;;;;;;13.83;61.25;101191.19;5009123;28;20243;-59
2023/09/16 03:10:14;;;;;;;3.93;2.10;;;;;;;13.85;61.29;101192.91;5007992;28;20210;-59
2023/09/16 03:12:42;;;;;;;3.83;2.27;;;;;;;13.84;61.56;101188.59;5009584;28;20254;-59
2023/09/16 03:15:11;;;;;;;6.10;2.30;;;;;;;13.85;61.85;101186.88;5008954;28;20262;-66
2023/09/16 03:17:39;;;;;;;3.67;2.17;;;;;;;13.79;61.63;101190.38;5008512;28;20207;-62
2023/09/16 03:20:22;;;;;;;4.07;2.30;;;;;;;13.71;62.22;101181.78;5001092;28;20251;-61
2023/09/16 03:22:50;;;;;;;4.20;2.20;;;;;;;13.69;62.47;101196.47;4971050;28;1103030;-61
2023/09/16 03:25:18;;;;;;;4.43;2.20;;;;;;;13.67;62.36;101193.91;5006904;28;20222;-61
2023/09/16 03:27:46;;;;;;;5.10;2.70;;;;;;;13.67;62.62;101188.72;5009823;28;20250;-63
2023/09/16 03:30:17;;;;;;;5.40;2.50;;;;;;;13.70;62.30;101193.03;5011022;28;20770;-62
2023/09/16 03:32:45;;;;;;;3.10;2.07;;;;;;;13.69;62.64;101191.28;5007377;28;20286;-59
2023/09/16 03:35:13;;;;;;;4.27;2.30;;;;;;;13.70;62.58;101195.63;5009469;28;20293;-61
2023/09/16 03:37:42;;;;;;;3.93;2.33;;;;;;;13.68;62.48;101198.19;5011106;28;20726;-63
2023/09/16 03:40:11;;;;;;;3.47;2.47;;;;;;;13.66;62.80;101199.06;5008185;28;20218;-60
2023/09/16 03:42:39;;;;;;;4.63;2.00;;;;;;;13.64;63.19;101190.47;5008639;28;20211;-59
2023/09/16 03:45:08;;;;;;;4.23;1.97;;;;;;;13.60;63.39;101201.72;5006567;28;20662;-64
2023/09/16 03:47:53;;;;;;;4.57;2.60;;;;;;;13.52;63.94;101197.44;5007059;28;20242;-59
2023/09/16 03:50:22;;;;;;;3.70;2.00;;;;;;;13.51;63.60;101200.00;5007112;28;20606;-67
2023/09/16 03:52:51;;;;;;;4.50;2.17;;;;;;;13.46;63.84;101189.69;5006837;28;20711;-61
2023/09/16 03:55:19;;;;;;;3.37;2.13;;;;;;;13.46;63.96;101194.84;5007350;28;20666;-60
2023/09/16 03:57:47;;;;;;;4.93;2.33;;;;;;;13.40;64.66;101196.59;5004832;28;20200;-60
2023/09/16 04:00:15;;;;;;;3.47;2.23;;;;;;;13.39;64.50;101197.47;5003606;28;20199;-59
2023/09/16 04:02:43;;;;;;;4.53;2.23;;;;;;;13.31;64.64;101194.94;5005345;28;20666;-59
2023/09/16 04:05:11;;;;;;;5.73;2.47;;;;;;;13.28;65.20;101194.94;5002417;28;20716;-58
2023/09/16 04:07:39;;;;;;;2.97;2.13;;;;;;;13.26;65.25;101196.69;5008084;28;20266;-59
2023/09/16 04:10:09;;;;;;;4.07;2.80;;;;;;;13.24;65.50;101198.41;5002207;28;20710;-60
2023/09/16 04:12:38;;;;;;;4.17;2.40;;;;;;;13.21;65.78;101198.38;5008365;28;20210;-63
2023/09/16 04:15:07;;;;;;;4.57;2.53;;;;;;;13.21;65.69;101194.06;5010621;28;20238;-60
2023/09/16 04:17:35;;;;;;;3.57;2.30;;;;;;;13.24;65.83;101195.81;5005681;28;20571;-62
2023/09/16 04:20:06;;;;;;;4.70;2.33;;;;;;;13.22;65.59;101195.81;5009025;28;20242;-60
2023/09/16 04:22:34;;;;;;;5.73;2.33;;;;;;;13.23;65.63;101196.66;5002738;28;20246;-62
2023/09/16 04:25:03;;;;;;;2.80;2.17;;;;;;;13.24;65.95;101199.28;5008995;28;20679;-66
2023/09/16 04:27:35;;;;;;;3.47;2.40;;;;;;;13.25;65.67;101202.72;5003892;28;20205;-60
2023/09/16 04:30:03;;;;;;;5.33;2.37;;;;;;;13.23;66.17;101196.66;5008190;28;20207;-58
2023/09/16 04:32:31;;;;;;;2.67;2.40;;;;;;;13.22;66.04;101193.22;5010691;28;20231;-60
2023/09/16 04:34:59;;;;;;;5.20;2.27;;;;;;;13.23;66.17;101194.09;5008822;28;20540;-62
2023/09/16 04:37:28;;;;;;;3.43;2.37;;;;;;;13.20;65.93;101192.34;5007476;28;20210;-60
2023/09/16 04:39:56;;;;;;;2.77;2.10;;;;;;;13.20;66.35;101197.53;5009735;28;20207;-61
2023/09/16 04:42:29;;;;;;;4.63;2.80;;;;;;;13.20;66.09;101196.69;5009242;28;20215;-60
2023/09/16 04:44:59;;;;;;;5.10;2.73;;;;;;;13.20;66.21;101196.69;5003399;28;20295;-61
2023/09/16 04:47:27;;;;;;;6.10;2.30;;;;;;;13.16;66.24;101193.25;5010267;28;20306;-62
2023/09/16 04:49:56;;;;;;;3.40;2.60;;;;;;;13.16;66.43;101194.97;5004302;28;20294;-62
2023/09/16 04:52:27;;;;;;;3.90;2.33;;;;;;;13.13;66.83;101194.97;5006738;28;20203;-61
2023/09/16 04:54:55;;;;;;;4.83;2.43;;;;;;;13.10;67.07;101198.44;5009876;28;20661;-62
2023/09/16 04:57:23;;;;;;;5.00;2.40;;;;;;;13.08;66.81;101196.72;5010462;28;20717;-63
2023/09/16 04:59:51;;;;;;;5.63;2.47;;;;;;;13.09;66.83;101195.84;5009962;28;20214;-60
2023/09/16 05:02:20;;;;;;;4.20;2.60;;;;;;;13.11;67.01;101184.66;5003336;28;20216;-63
2023/09/16 05:04:48;;;;;;;3.40;2.30;;;;;;;13.13;67.00;101187.22;5006809;28;20216;-64
2023/09/16 05:07:16;;;;;;;6.57;2.90;;;;;;;13.16;66.73;101197.56;5008601;28;20661;-60
2023/09/16 05:09:44;;;;;;;4.17;3.00;;;;;;;13.19;66.54;101192.38;5010106;28;20765;-60
2023/09/16 05:12:12;;;;;;;3.37;2.50;;;;;;;13.22;66.70;101197.53;5000383;28;20231;-61
2023/09/16 05:14:40;;;;;;;4.47;2.40;;;;;;;13.24;66.50;101203.59;5004594;28;20291;-64
2023/09/16 05:17:08;;;;;;;3.60;2.53;;;;;;;13.23;66.73;101200.16;5009269;28;20227;-61
2023/09/16 05:19:37;;;;;;;3.83;2.50;;;;;;;13.27;66.34;101208.75;5007108;28;20658;-60
2023/09/16 05:22:06;;;;;;;3.17;2.23;;;;;;;13.26;66.60;101205.31;5008480;28;20235;-61
2023/09/16 05:24:34;;;;;;;3.67;2.50;;;;;;;13.26;66.55;101209.63;5006507;28;20203;-61
2023/09/16 05:27:03;;;;;;;6.27;2.80;;;;;;;13.26;66.73;101207.03;4990840;28;20207;-62
2023/09/16 05:29:31;;;;;;;3.20;2.43;;;;;;;13.26;66.67;101212.22;5005476;28;20204;-61
2023/09/16 05:31:59;;;;;;;6.50;2.80;;;;;;;13.23;66.67;101215.69;5004685;28;20228;-60
2023/09/16 05:34:27;;;;;;;3.13;2.23;;;;;;;13.21;66.74;101203.56;5005404;28;20210;-62
2023/09/16 05:36:56;;;;;;;7.80;3.30;;;;;;;13.24;66.73;101206.19;5012782;28;20258;-64
2023/09/16 05:39:24;;;;;;;5.97;2.63;;;;;;;13.29;66.68;101201.84;5013212;28;20654;-62
2023/09/16 05:41:54;;;;;;;6.63;3.40;;;;;;;13.36;66.86;101207.84;5011786;28;20678;-60
2023/09/16 05:44:21;;;;;;;3.20;2.43;;;;;;;13.41;66.33;101209.56;5010069;28;20210;-60
2023/09/16 05:46:49;;;;;;;4.33;2.53;;;;;;;13.46;66.04;101215.56;5011790;28;20207;-61
2023/09/16 05:49:18;;;;;;;3.97;2.90;;;;;;;13.49;66.35;101218.16;5009696;28;20214;-61
2023/09/16 05:51:46;;;;;;;5.30;2.93;;;;;;;13.52;66.04;101210.38;5012568;28;20239;-63
2023/09/16 05:54:17;;;;;;;5.43;3.00;;;;;;;13.54;66.10;101213.78;5012585;28;20210;-60
2023/09/16 05:56:46;;;;;;;7.93;2.70;;;;;;;13.55;66.50;101209.50;5011356;28;20625;-60
2023/09/16 05:59:16;;;;;;;4.60;2.80;;;;;;;13.58;66.30;101208.59;5017952;28;20286;-62
2023/09/16 06:01:44;;;;;;;5.70;2.93;;;;;;;13.58;66.42;101203.44;5006844;28;20222;-60
2023/09/16 06:04:12;;;;;;;3.80;2.40;;;;;;;13.64;66.38;101208.59;5011025;28;20608;-60
2023/09/16 06:06:40;;;;;;;7.73;2.90;;;;;;;13.67;66.38;101214.63;5011439;28;20785;-63
2023/09/16 06:09:08;;;;;;;4.47;2.90;;;;;;;13.68;66.47;101213.72;5002195;28;20212;-67
2023/09/16 06:11:38;;;;;;;4.27;3.00;;;;;;;13.74;66.37;101213.72;5010340;28;20207;-61
2023/09/16 06:14:06;;;;;;;5.83;2.83;;;;;;;13.80;65.95;101225.75;5004308;28;20214;-61
2023/09/16 06:16:34;;;;;;;4.43;3.03;;;;;;;13.85;65.94;101217.97;5010873;28;20215;-62
2023/09/16 06:19:02;;;;;;;6.80;3.23;;;;;;;13.91;66.47;101221.34;5013469;28;20614;-60
2023/09/16 06:21:31;;;;;;;5.07;3.17;;;;;;;14.00;66.10;101220.47;5005929;28;20243;-63
2023/09/16 06:23:59;;;;;;;4.33;2.47;;;;;;;14.13;66.08;101231.59;5013164;28;20209;-62
2023/09/16 06:26:27;;;;;;;9.13;3.40;;;;;;;14.31;65.77;101222.81;5010120;28;20618;-63
2023/09/16 06:28:57;;;;;;;6.43;2.93;;;;;;;14.59;65.12;101219.16;5010578;28;20207;-60
2023/09/16 06:31:25;;;;;;;4.53;2.30;;;;;;;14.94;64.10;101221.38;5005728;28;20658;-59
2023/09/16 06:33:55;;;;;;;4.43;3.00;;;;;;;15.25;62.88;101222.78;5007611;28;20255;-61
2023/09/16 06:36:23;;;;;;;4.13;2.77;;;;;;;15.55;61.91;101214.59;5012000;28;20261;-61
2023/09/16 06:38:51;;;;;;;7.13;3.20;;;;;;;15.82;60.43;101210.78;5005838;28;20695;-60
2023/09/16 06:41:19;;;;;;;2.97;2.40;;;;;;;16.05;59.51;101210.44;5006024;28;20294;-61
2023/09/16 06:43:47;;;;;;;4.57;2.90;;;;;;;16.26;58.70;101214.44;5005219;28;20769;-64
2023/09/16 06:46:17;;;;;;;4.80;2.43;;;;;;;16.50;58.28;101209.72;5008565;28;20230;-61
2023/09/16 06:48:46;;;;;;;5.97;2.85;;;;;;;16.80;57.24;101209.19;5009929;28;20206;-61
2023/09/16 06:51:14;;;;;;;3.45;2.83;;;;;;;17.11;56.37;101216.41;5012231;28;20594;-65
2023/09/16 06:53:42;;;;;;;7.38;3.78;;;;;;;17.42;55.04;101205.38;5012489;28;20646;-61
2023/09/16 06:56:10;;;;;;;5.15;2.80;;;;;;;17.72;54.55;101212.53;5009437;28;20671;-62
2023/09/16 06:58:38;;;;;;;6.93;3.00;;;;;;;18.05;54.05;101207.47;5010114;28;20736;-59
2023/09/16 07:01:10;;;;;;;6.10;3.08;;;;;;;18.42;52.76;101209.16;5010932;28;20206;-66
2023/09/16 07:03:40;;;;;;;3.05;2.33;;;;;;;18.66;51.07;101200.69;5010163;28;20234;-61
2023/09/16 07:06:08;;;;;;;4.13;2.72;;;;;;;18.89;50.84;101207.94;5010483;28;20605;-61
2023/09/16 07:08:36;;;;;;;4.90;2.78;;;;;;;19.12;50.39;101214.28;5011142;28;20203;-61
2023/09/16 07:11:04;;;;;;;6.00;2.65;;;;;;;19.50;49.65;101210.53;5012277;28;20207;-61
2023/09/16 07:13:32;;;;;;;3.72;2.53;;;;;;;19.93;47.97;101207.50;5012063;28;20204;-61
2023/09/16 07:15:59;;;;;;;2.55;2.35;;;;;;;20.53;47.16;101205.56;5010747;28;20549;-64
2023/09/16 07:18:28;;;;;;;6.05;2.63;;;;;;;21.24;45.51;101201.25;5010552;28;20733;-61
2023/09/16 07:20:57;;;;;;;5.28;2.83;;;;;;;22.36;43.34;101200.34;5009154;28;20612;-61
2023/09/16 07:23:25;;;;;;;7.43;2.75;;;;;;;23.62;40.95;101200.84;5009963;28;20674;-60
2023/09/16 07:25:55;;;;;;;4.32;2.50;;;;;;;24.86;38.33;101201.75;5011056;28;20203;-63
2023/09/16 07:28:23;;;;;;;4.43;3.03;;;;;;;25.92;35.93;101196.84;5011080;28;20207;-59
2023/09/16 07:30:51;;;;;;;4.35;2.95;;;;;;;27.13;34.01;101200.19;5005206;28;20262;-62
2023/09/16 07:33:19;;;;;;;3.15;2.47;;;;;;;28.05;31.83;101196.94;5010567;28;20191;-60
2023/09/16 07:35:48;;;;;;;3.40;2.53;;;;;;;28.87;30.02;101190.47;5005915;28;20646;-60
2023/09/16 07:38:18;;;;;;;3.40;2.58;;;;;;;29.58;28.79;101196.09;5010816;28;20658;-60
2023/09/16 07:40:45;;;;;;;6.88;2.70;;;;;;;30.26;27.94;101187.47;5010547;28;20294;-62
2023/09/16 07:43:16;;;;;;;5.65;2.60;;;;;;;31.28;27.20;101180.41;5011386;28;20227;-60
2023/09/16 07:45:44;;;;;;;4.72;2.70;;;;;;;31.92;25.28;101179.63;5010899;28;20290;-63
2023/09/16 07:48:14;;;;;;;2.67;2.22;;;;;;;32.38;24.92;101181.09;5007690;28;20203;-64
2023/09/16 07:50:42;;;;;;;2.50;2.17;;;;;;;32.91;23.15;101180.94;5010528;28;20214;-66
2023/09/16 07:53:10;;;;;;;4.25;2.55;;;;;;;32.99;23.04;101177.63;5010401;28;20662;-67
2023/09/16 07:55:40;;;;;;;5.13;2.55;;;;;;;33.28;23.53;101180.38;5011317;28;20214;-59
2023/09/16 07:58:08;;;;;;;3.40;2.40;;;;;;;34.04;22.43;101178.81;5009589;28;20207;-59
2023/09/16 08:00:36;;;;;;;3.67;2.08;;;;;;;34.12;22.47;101170.91;5001681;28;20221;-59
2023/09/16 08:03:05;;;;;;;2.50;2.30;;;;;;;34.49;21.19;101172.78;5005382;28;20307;-62
2023/09/16 08:05:33;;;;;;;2.70;2.03;;;;;;;34.04;21.20;101173.44;5010994;28;20211;-58
2023/09/16 08:08:01;;;;;;;3.60;2.42;;;;;;;34.11;22.30;101179.09;5008554;28;20597;-61
2023/09/16 08:10:29;;;;;;;3.30;2.63;;;;;;;34.84;21.84;101166.78;5007279;28;20285;-60
2023/09/16 08:12:59;;;;;;;4.63;2.30;;;;;;;35.51;20.73;101159.38;5009331;28;20246;-59
2023/09/16 08:15:27;;;;;;;5.50;2.38;;;;;;;35.88;20.43;101160.19;5011775;28;20283;-59
2023/09/16 08:17:55;;;;;;;4.60;2.58;;;;;;;36.58;19.43;101162.88;5005388;28;20289;-60
2023/09/16 08:20:24;;;;;;;2.72;2.20;;;;;;;36.77;18.77;101159.94;5011094;28;20209;-60
2023/09/16 08:22:52;;;;;;;2.35;1.70;;;;;;;36.71;19.36;101163.25;5008481;28;20248;-61
2023/09/16 08:25:21;;;;;;;4.90;1.95;;;;;;;36.23;19.81;101159.28;4999504;28;20207;-59
2023/09/16 08:27:48;;;;;;;2.55;2.00;;;;;;;35.79;18.56;101159.25;5006661;28;20214;-60
2023/09/16 08:30:18;;;;;;;2.65;2.08;;;;;;;34.45;20.98;101155.34;5010248;28;20213;-61
2023/09/16 08:32:46;;;;;;;3.25;1.80;;;;;;;33.54;22.53;101157.53;5008972;28;20662;-60
2023/09/16 08:35:14;;;;;;;3.35;1.73;;;;;;;32.39;23.50;101156.09;5010092;28;20203;-60
2023/09/16 08:37:42;;;;;;;4.40;2.05;;;;;;;31.58;24.65;101150.44;5011471;28;20210;-60
2023/09/16 08:40:10;;;;;;;5.20;2.30;;;;;;;30.94;25.21;101155.66;5017373;28;20301;-59
2023/09/16 08:42:40;;;;;;;3.80;2.00;;;;;;;30.24;26.88;101157.50;5006084;28;20671;-60
2023/09/16 08:45:14;;;;;;;3.58;1.83;;;;;;;29.70;26.98;101162.47;5002447;28;20688;-61
2023/09/16 08:47:55;;;;;;;2.65;2.00;;;;;;;29.12;27.66;101167.53;5006090;28;20207;-60
2023/09/16 08:50:25;;;;;;;3.55;2.25;;;;;;;28.71;28.84;101171.28;5009472;28;20207;-60
2023/09/16 08:52:58;;;;;;;6.47;2.13;;;;;;;28.29;29.26;101167.13;5002312;28;20319;-62
2023/09/16 08:55:27;;;;;;;3.75;2.13;;;;;;;27.38;30.44;101162.44;5000717;28;20199;-62
2023/09/16 08:58:02;;;;;;;8.70;2.10;;;;;;;26.88;31.96;101174.41;5010852;28;20211;-61
2023/09/16 09:00:30;;;;;;;2.83;1.95;;;;;;;26.50;32.92;101166.16;5011709;28;20207;-60
2023/09/16 09:03:00;;;;;;;2.47;2.20;;;;;;;26.24;33.66;101162.41;5005942;28;20251;-59
2023/09/16 09:05:30;;;;;;;4.28;2.10;;;;;;;25.68;33.41;101161.25;5008391;28;20654;-60
2023/09/16 09:07:59;;;;;;;3.22;2.20;;;;;;;25.24;34.45;101161.94;5008949;28;20199;-62
2023/09/16 09:10:27;;;;;;;2.67;1.88;;;;;;;24.67;35.00;101157.06;5013580;28;20627;-61
2023/09/16 09:12:57;;;;;;;1.52;1.40;;;;;;;24.40;36.06;101164.59;5015222;28;20245;-64
2023/09/16 09:15:26;;;;;;;3.20;2.10;;;;;;;24.38;37.04;101161.19;5009380;28;20278;-60
2023/09/16 09:17:58;;;;;;;5.82;2.20;;;;;;;24.47;36.71;101167.78;5014943;28;20654;-66
2023/09/16 09:20:29;;;;;;;3.35;2.00;;;;;;;24.39;36.58;101160.28;5014024;28;20278;-65
2023/09/16 09:22:58;;;;;;;4.45;2.38;;;;;;;24.32;36.26;101164.13;5014503;28;20243;-65
2023/09/16 09:25:27;;;;;;;3.28;2.22;;;;;;;24.18;36.56;101169.22;5009382;28;20569;-62
2023/09/16 09:27:57;;;;;;;2.20;1.77;;;;;;;23.97;36.85;101161.50;5014722;28;20203;-63
2023/09/16 09:30:27;;;;;;;2.72;1.95;;;;;;;23.85;37.21;101157.66;5012406;28;20251;-65
2023/09/16 09:32:56;;;;;;;5.88;2.10;;;;;;;23.82;37.08;101156.97;5012699;28;20196;-61
2023/09/16 09:35:25;;;;;;;2.08;1.88;;;;;;;23.44;37.72;101143.84;5048237;22;20289;-81
2023/09/16 09:37:55;;;;;;;5.05;2.40;;;;;;;23.35;38.11;101147.78;5038937;28;20214;-84
2023/09/16 09:40:25;;;;;;;3.85;2.00;;;;;;;23.34;38.10;101138.19;5023247;28;20632;-84
2023/09/16 09:42:55;;;;;;;3.60;1.70;;;;;;;23.38;38.29;101131.88;5020172;28;20187;-80
2023/09/16 09:45:25;;;;;;;2.80;1.80;;;;;;;23.54;38.35;101137.22;5036896;28;20361;-81
2023/09/16 09:47:54;;;;;;;3.05;2.17;;;;;;;23.36;38.26;101132.84;5037214;28;20259;-79
2023/09/16 09:50:24;;;;;;;2.83;1.90;;;;;;;23.25;38.60;101129.88;5031158;28;20203;-87
2023/09/16 09:52:53;;;;;;;2.50;1.95;;;;;;;23.20;38.50;101122.22;5028459;28;20207;-87
2023/09/16 09:55:25;;;;;;;7.22;3.00;;;;;;;22.92;38.60;101088.47;5023980;28;20209;-80
2023/09/16 09:57:55;;;;;;;4.03;2.17;;;;;;;23.03;38.24;101130.88;5021988;28;20250;-80
2023/09/16 10:00:26;;;;;;;3.78;1.60;;;;;;;22.95;38.72;101114.59;5036683;28;20230;-79
2023/09/16 10:02:59;;;;;;;3.40;2.10;;;;;;;23.20;38.83;101110.81;5045978;28;20214;-80
2023/09/16 10:05:27;;;;;;;4.82;2.10;;;;;;;23.27;38.01;101112.22;5034013;28;20272;-80
2023/09/16 10:07:56;;;;;;;3.67;1.88;;;;;;;23.35;37.98;101110.97;5029334;28;20211;-82
2023/09/16 10:10:26;;;;;;;2.33;1.73;;;;;;;23.34;38.50;101106.63;5035044;28;20209;-80
2023/09/16 10:12:56;;;;;;;2.35;1.80;;;;;;;23.55;37.91;101112.63;5021173;28;20212;-80
2023/09/16 10:15:25;;;;;;;4.35;2.00;;;;;;;23.82;37.69;101106.94;5034817;28;20202;-80
2023/09/16 10:17:54;;;;;;;4.95;2.08;;;;;;;24.10;37.09;101101.16;5017580;28;20211;-81
2023/09/16 10:20:23;;;;;;;3.40;2.00;;;;;;;24.35;36.03;101098.13;5033262;28;20297;-82
2023/09/16 10:22:53;;;;;;;2.47;1.85;;;;;;;24.52;35.74;101098.13;5035651;28;20199;-80
2023/09/16 10:25:23;;;;;;;4.45;3.05;;;;;;;24.73;35.39;101095.25;5033543;28;20292;-81
2023/09/16 10:27:58;;;;;;;3.22;2.47;;;;;;;24.80;35.05;101094.00;5024573;28;20202;-80
2023/09/16 10:30:26;;;;;;;3.35;2.35;;;;;;;25.06;34.89;101096.03;5035850;28;20206;-81
2023/09/16 10:33:00;;;;;;;1.73;1.52;;;;;;;25.10;33.74;101080.06;5035101;28;20206;-84
2023/09/16 10:35:29;;;;;;;2.60;2.30;;;;;;;25.04;34.11;101062.81;5021059;28;20286;-79
2023/09/16 10:38:00;;;;;;;2.35;2.08;;;;;;;25.39;33.70;101081.94;5036436;28;20226;-80
2023/09/16 10:40:28;;;;;;;2.17;1.67;;;;;;;25.43;33.61;101082.59;5030379;28;20215;-80
2023/09/16 10:42:59;;;;;;;1.85;1.67;;;;;;;25.25;33.57;101073.94;5024597;28;20273;-80
2023/09/16 10:45:31;;;;;;;1.95;1.60;;;;;;;25.25;33.69;101071.31;5036469;28;20226;-79
2023/09/16 10:48:07;;;;;;;4.30;1.83;;;;;;;25.28;33.70;101068.50;5037356;28;20186;-80
2023/09/16 10:50:37;;;;;;;2.25;1.83;;;;;;;25.46;34.15;101062.19;5036893;28;20230;-81
2023/09/16 10:53:10;;;;;;;2.05;1.60;;;;;;;25.46;33.43;101061.31;5037652;28;20214;-80
2023/09/16 10:55:53;;;;;;;3.28;1.90;;;;;;;25.51;33.93;101052.19;5038035;28;20190;-80
2023/09/16 10:58:33;;;;;;;2.38;1.95;;;;;;;25.35;33.40;101061.94;5024264;28;20622;-81
2023/09/16 11:01:03;;;;;;;2.35;1.60;;;;;;;24.92;34.02;101040.56;5025374;28;20294;-81
2023/09/16 11:03:33;;;;;;;4.25;1.73;;;;;;;25.00;34.60;101050.69;5027643;28;20239;-80
2023/09/16 11:06:02;;;;;;;3.17;1.80;;;;;;;25.16;35.16;101046.31;5036214;28;20233;-80
2023/09/16 11:08:30;;;;;;;4.82;2.13;;;;;;;25.39;33.84;101054.69;5029112;28;20230;-81
2023/09/16 11:10:59;;;;;;;4.95;2.13;;;;;;;25.51;33.61;101036.34;5036709;28;20221;-80
2023/09/16 11:13:30;;;;;;;3.70;1.75;;;;;;;25.53;33.50;101026.56;5035601;28;20606;-81
2023/09/16 11:15:59;;;;;;;3.70;1.90;;;;;;;25.53;32.88;101031.84;5021878;28;20203;-78
2023/09/16 11:18:29;;;;;;;4.35;1.92;;;;;;;25.49;33.30;101030.34;5021990;28;20237;-80
2023/09/16 11:20:58;;;;;;;5.40;2.17;;;;;;;25.38;33.47;101039.81;5037156;28;20272;-81
2023/09/16 11:23:34;;;;;;;4.10;2.20;;;;;;;25.38;33.74;101037.19;5030343;28;20209;-80
2023/09/16 11:26:04;;;;;;;3.53;2.53;;;;;;;25.27;33.46;101027.25;5037570;28;20584;-79
2023/09/16 11:28:42;;;;;;;2.20;2.00;;;;;;;24.94;33.99;101032.59;5038088;28;20665;-81
2023/09/16 11:31:13;;;;;;;2.13;2.00;;;;;;;24.63;34.54;101028.16;5028750;28;20210;-82
2023/09/16 11:33:43;;;;;;;2.60;1.90;;;;;;;24.24;35.36;101026.72;5035117;28;20595;-81